createdAt,value
2022-08-23T00:01:34.675Z,92.70
2022-08-23T00:04:07.829Z,92.60
2022-08-23T00:06:35.520Z,92.40
2022-08-23T00:09:02.771Z,92.40
2022-08-23T00:11:41.013Z,92.70
2022-08-23T00:14:11.144Z,92.80
2022-08-23T00:16:39.332Z,92.90
2022-08-23T00:19:09.654Z,93.10
2022-08-23T00:21:38.450Z,93.40
2022-08-23T00:24:09.926Z,93.40
2022-08-23T00:27:01.403Z,93.50
2022-08-23T00:29:32.358Z,93.80
2022-08-23T00:32:00.430Z,93.80
2022-08-23T00:34:28.356Z,93.90
2022-08-23T00:36:55.813Z,94.10
2022-08-23T00:39:22.625Z,94.10
2022-08-23T00:41:50.721Z,94.10
2022-08-23T00:44:51.610Z,94.20
2022-08-23T00:47:38.903Z,94.70
2022-08-23T00:50:39.126Z,94.30
2022-08-23T00:53:24.287Z,94.40
2022-08-23T00:55:55.118Z,94.80
2022-08-23T00:58:22.429Z,94.50
2022-08-23T01:00:51.921Z,94.60
2022-08-23T01:03:22.200Z,94.60
2022-08-23T01:06:24.871Z,94.60
2022-08-23T01:09:09.137Z,94.80
2022-08-23T01:11:51.099Z,95.00
2022-08-23T01:14:41.471Z,95.00
2022-08-23T01:17:13.557Z,95.10
2022-08-23T01:19:51.770Z,95.10
2022-08-23T01:22:24.601Z,95.30
2022-08-23T01:25:07.131Z,95.30
2022-08-23T01:27:36.887Z,95.20
2022-08-23T01:30:10.168Z,95.30
2022-08-23T01:32:46.713Z,95.40
2022-08-23T01:35:14.208Z,95.50
2022-08-23T01:37:42.292Z,95.50
2022-08-23T01:40:09.469Z,95.80
2022-08-23T01:42:36.270Z,95.50
2022-08-23T01:45:04.162Z,95.50
2022-08-23T01:47:31.833Z,95.50
2022-08-23T01:49:58.676Z,95.50
2022-08-23T01:52:25.474Z,95.50
2022-08-23T01:54:52.471Z,95.50
2022-08-23T01:57:22.187Z,95.50
2022-08-23T01:59:49.056Z,95.40
2022-08-23T02:02:21.236Z,95.60
2022-08-23T02:04:51.114Z,95.70
2022-08-23T02:07:21.082Z,95.70
2022-08-23T02:09:51.206Z,95.60
2022-08-23T02:12:20.641Z,95.40
2022-08-23T02:14:48.249Z,95.30
2022-08-23T02:17:16.241Z,95.20
2022-08-23T02:19:43.948Z,95.00
2022-08-23T02:22:11.609Z,94.90
2022-08-23T02:24:44.588Z,94.90
2022-08-23T02:27:15.306Z,94.90
2022-08-23T02:29:44.822Z,94.90
2022-08-23T02:32:15.364Z,95.00
2022-08-23T02:34:51.331Z,95.10
2022-08-23T02:37:31.540Z,95.20
2022-08-23T02:40:00.794Z,95.40
2022-08-23T02:42:27.818Z,95.50
2022-08-23T02:44:55.484Z,95.40
2022-08-23T02:47:23.668Z,95.40
2022-08-23T02:49:52.846Z,95.40
2022-08-23T02:52:21.867Z,95.40
2022-08-23T02:54:48.779Z,95.50
2022-08-23T02:57:17.766Z,95.40
2022-08-23T02:59:44.731Z,95.40
2022-08-23T03:02:13.800Z,95.30
2022-08-23T03:04:44.924Z,95.10
2022-08-23T03:07:14.964Z,95.00
2022-08-23T03:09:41.780Z,95.10
2022-08-23T03:12:08.662Z,95.20
2022-08-23T03:14:37.981Z,95.40
2022-08-23T03:17:08.110Z,95.40
2022-08-23T03:19:35.336Z,95.40
2022-08-23T03:22:02.068Z,95.40
2022-08-23T03:24:29.747Z,95.50
2022-08-23T03:26:59.141Z,95.70
2022-08-23T03:29:26.067Z,95.60
2022-08-23T03:31:53.951Z,95.60
2022-08-23T03:34:23.630Z,95.60
2022-08-23T03:36:50.397Z,95.70
2022-08-23T03:39:19.725Z,95.60
2022-08-23T03:41:49.301Z,95.60
2022-08-23T03:44:18.643Z,95.60
2022-08-23T03:46:47.825Z,95.60
2022-08-23T03:49:16.840Z,95.60
2022-08-23T03:51:43.609Z,95.60
2022-08-23T03:54:10.922Z,95.50
2022-08-23T03:56:42.370Z,95.80
2022-08-23T03:59:13.862Z,95.60
2022-08-23T04:01:42.982Z,95.80
2022-08-23T04:04:10.829Z,95.70
2022-08-23T04:06:37.569Z,95.70
2022-08-23T04:09:04.666Z,95.90
2022-08-23T04:11:31.590Z,96.10
2022-08-23T04:14:01.049Z,96.20
2022-08-23T04:16:30.501Z,96.20
2022-08-23T04:18:59.842Z,96.30
2022-08-23T04:21:27.544Z,96.30
2022-08-23T04:23:54.312Z,96.40
2022-08-23T04:26:21.452Z,96.40
2022-08-23T04:28:50.988Z,96.50
2022-08-23T04:31:20.090Z,96.60
2022-08-23T04:33:52.517Z,96.60
2022-08-23T04:36:20.479Z,96.50
2022-08-23T04:38:52.808Z,96.60
2022-08-23T04:41:38.597Z,96.70
2022-08-23T04:44:05.745Z,96.90
2022-08-23T04:46:34.690Z,97.00
2022-08-23T04:49:01.783Z,97.00
2022-08-23T04:51:30.657Z,97.00
2022-08-23T04:54:00.158Z,97.10
2022-08-23T04:56:27.002Z,97.10
2022-08-23T04:58:59.386Z,97.00
2022-08-23T05:01:26.236Z,97.00
2022-08-23T05:03:54.591Z,96.90
2022-08-23T05:06:22.903Z,96.90
2022-08-23T05:08:49.839Z,97.00
2022-08-23T05:11:18.997Z,97.10
2022-08-23T05:13:45.944Z,97.40
2022-08-23T05:16:14.015Z,97.40
2022-08-23T05:18:45.479Z,97.40
2022-08-23T05:21:19.551Z,97.50
2022-08-23T05:23:51.007Z,97.40
2022-08-23T05:26:22.087Z,97.50
2022-08-23T05:28:49.806Z,97.60
2022-08-23T05:31:25.680Z,97.70
2022-08-23T05:33:53.270Z,97.90
2022-08-23T05:36:21.555Z,97.90
2022-08-23T05:38:49.459Z,98.00
2022-08-23T05:41:17.121Z,98.20
2022-08-23T05:43:44.981Z,98.10
2022-08-23T05:46:21.800Z,98.10
2022-08-23T05:48:53.387Z,98.20
2022-08-23T05:51:27.540Z,98.10
2022-08-23T05:53:57.445Z,98.00
2022-08-23T05:56:36.661Z,97.90
2022-08-23T05:59:06.864Z,97.80
2022-08-23T06:01:40.099Z,97.70
2022-08-23T06:04:09.041Z,97.60
2022-08-23T06:06:37.684Z,97.50
2022-08-23T06:09:08.540Z,97.40
2022-08-23T06:11:38.183Z,97.30
2022-08-23T06:14:07.715Z,97.30
2022-08-23T06:16:43.656Z,97.20
2022-08-23T06:19:10.573Z,97.10
2022-08-23T06:21:38.609Z,97.10
2022-08-23T06:24:08.045Z,97.00
2022-08-23T06:26:38.418Z,97.00
2022-08-23T06:29:10.092Z,97.30
2022-08-23T06:31:49.726Z,97.30
2022-08-23T06:34:39.516Z,97.10
2022-08-23T06:37:15.140Z,96.90
2022-08-23T06:39:42.356Z,96.80
2022-08-23T06:42:34.791Z,96.50
2022-08-23T06:45:00.137Z,96.40
2022-08-23T06:47:27.087Z,96.10
2022-08-23T06:49:58.359Z,95.90
2022-08-23T06:52:27.487Z,95.60
2022-08-23T06:54:54.790Z,95.20
2022-08-23T06:57:24.253Z,94.90
2022-08-23T06:59:51.142Z,94.60
2022-08-23T07:02:18.059Z,94.30
2022-08-23T07:04:53.788Z,94.10
2022-08-23T07:07:22.694Z,93.80
2022-08-23T07:09:49.835Z,93.40
2022-08-23T07:12:17.100Z,93.20
2022-08-23T07:14:44.259Z,93.10
2022-08-23T07:17:13.240Z,93.10
2022-08-23T07:19:43.936Z,93.10
2022-08-23T07:24:52.963Z,92.60
2022-08-23T07:27:19.784Z,92.30
2022-08-23T07:29:46.671Z,91.90
2022-08-23T07:32:15.767Z,91.40
2022-08-23T07:34:42.790Z,91.30
2022-08-23T07:37:15.211Z,91.10
2022-08-23T07:39:43.184Z,91.00
2022-08-23T07:42:22.910Z,91.00
2022-08-23T07:44:51.863Z,90.90
2022-08-23T07:47:19.963Z,90.90
2022-08-23T07:49:47.088Z,91.00
2022-08-23T07:52:14.035Z,90.80
2022-08-23T07:54:45.889Z,90.90
2022-08-23T07:57:17.925Z,90.60
2022-08-23T07:59:48.623Z,90.60
2022-08-23T08:02:18.218Z,90.80
2022-08-23T08:04:47.313Z,91.00
2022-08-23T08:07:21.574Z,90.90
2022-08-23T08:09:48.700Z,90.70
2022-08-23T08:12:15.550Z,90.40
2022-08-23T08:14:44.899Z,90.40
2022-08-23T08:17:11.934Z,90.50
2022-08-23T08:19:38.814Z,90.20
2022-08-23T08:22:08.072Z,90.40
2022-08-23T08:24:35.345Z,90.40
2022-08-23T08:27:02.200Z,90.50
2022-08-23T08:29:29.096Z,90.40
2022-08-23T08:31:56.515Z,90.40
2022-08-23T08:34:23.558Z,90.40
2022-08-23T08:36:53.908Z,90.40
2022-08-23T08:39:25.611Z,89.70
2022-08-23T08:42:26.408Z,89.90
2022-08-23T08:44:55.201Z,88.80
2022-08-23T08:47:40.734Z,89.10
2022-08-23T08:50:33.903Z,88.80
2022-08-23T08:53:10.668Z,88.70
2022-08-23T08:55:46.251Z,88.80
2022-08-23T08:58:28.897Z,89.30
2022-08-23T09:00:56.853Z,89.90
2022-08-23T09:03:28.761Z,89.60
2022-08-23T09:06:03.324Z,88.90
2022-08-23T09:08:43.170Z,88.40
2022-08-23T09:11:28.658Z,87.80
2022-08-23T09:14:20.353Z,87.40
2022-08-23T09:16:52.626Z,87.20
2022-08-23T09:19:22.269Z,87.10
2022-08-23T09:21:57.597Z,86.60
2022-08-23T09:24:25.566Z,87.10
2022-08-23T09:26:56.221Z,86.70
2022-08-23T09:29:30.120Z,87.40
2022-08-23T09:32:02.557Z,86.70
2022-08-23T09:34:36.270Z,86.50
2022-08-23T09:37:24.271Z,87.00
2022-08-23T09:40:19.228Z,87.10
2022-08-23T09:42:47.441Z,88.00
2022-08-23T09:45:38.907Z,87.40
2022-08-23T09:48:13.315Z,86.70
2022-08-23T09:50:47.785Z,86.40
2022-08-23T09:53:16.882Z,86.10
2022-08-23T09:55:51.265Z,86.00
2022-08-23T09:58:23.734Z,85.90
2022-08-23T10:01:22.074Z,85.60
2022-08-23T10:04:09.505Z,85.70
2022-08-23T10:06:36.591Z,86.40
2022-08-23T10:09:07.585Z,84.90
2022-08-23T10:11:45.237Z,84.00
2022-08-23T10:14:15.157Z,84.00
2022-08-23T10:17:08.272Z,83.50
2022-08-23T10:20:15.071Z,83.20
2022-08-23T10:22:50.587Z,83.60
2022-08-23T10:25:42.057Z,84.10
2022-08-23T10:28:56.098Z,84.10
2022-08-23T10:31:50.057Z,82.30
2022-08-23T10:34:31.497Z,81.70
2022-08-23T10:37:14.414Z,82.60
2022-08-23T10:40:12.356Z,81.90
2022-08-23T10:42:51.196Z,80.80
2022-08-23T10:45:36.418Z,81.10
2022-08-23T10:48:09.771Z,78.60
2022-08-23T10:50:56.506Z,77.20
2022-08-23T10:53:33.759Z,78.40
2022-08-23T10:56:05.834Z,77.90
2022-08-23T10:58:48.138Z,77.00
2022-08-23T11:01:18.765Z,76.30
2022-08-23T11:04:01.113Z,76.60
2022-08-23T11:06:37.003Z,76.60
2022-08-23T11:09:08.916Z,76.80
2022-08-23T11:11:49.845Z,76.60
2022-08-23T11:14:34.281Z,76.70
2022-08-23T11:17:10.752Z,76.90
2022-08-23T11:19:53.765Z,76.60
2022-08-23T11:22:29.480Z,75.50
2022-08-23T11:24:59.665Z,75.80
2022-08-23T11:27:39.512Z,74.80
2022-08-23T11:30:45.324Z,75.70
2022-08-23T11:33:26.369Z,74.90
2022-08-23T11:35:53.322Z,75.40
2022-08-23T11:38:52.957Z,75.30
2022-08-23T11:41:22.327Z,74.70
2022-08-23T11:43:56.146Z,72.80
2022-08-23T11:46:31.058Z,72.00
2022-08-23T11:49:30.116Z,72.90
2022-08-23T11:52:31.750Z,73.90
2022-08-23T11:55:04.360Z,73.10
2022-08-23T11:57:51.897Z,73.00
2022-08-23T12:00:44.646Z,72.20
2022-08-23T12:03:52.690Z,70.90
2022-08-23T12:06:22.460Z,72.40
2022-08-23T12:09:02.212Z,71.50
2022-08-23T12:11:56.247Z,71.10
2022-08-23T12:14:31.935Z,69.40
2022-08-23T12:17:01.350Z,69.30
2022-08-23T12:19:46.534Z,69.60
2022-08-23T12:22:17.672Z,70.60
2022-08-23T12:25:02.971Z,71.30
2022-08-23T12:27:33.624Z,70.30
2022-08-23T12:30:08.052Z,70.90
2022-08-23T12:32:45.815Z,71.50
2022-08-23T12:35:28.305Z,73.70
2022-08-23T12:38:13.954Z,75.60
2022-08-23T12:40:48.261Z,76.70
2022-08-23T12:43:22.531Z,77.70
2022-08-23T12:45:54.598Z,78.80
2022-08-23T12:48:25.263Z,79.80
2022-08-23T12:51:07.112Z,79.60
2022-08-23T12:53:44.549Z,80.30
2022-08-23T12:56:20.728Z,81.20
2022-08-23T12:58:56.004Z,81.90
2022-08-23T13:01:33.823Z,81.40
2022-08-23T13:04:09.244Z,81.40
2022-08-23T13:06:44.729Z,81.30
2022-08-23T13:09:22.558Z,81.50
2022-08-23T13:11:49.584Z,81.30
2022-08-23T13:14:47.372Z,80.50
2022-08-23T13:17:26.358Z,79.70
2022-08-23T13:20:23.419Z,79.10
2022-08-23T13:22:59.887Z,77.70
2022-08-23T13:25:38.578Z,77.50
2022-08-23T13:28:31.212Z,76.90
2022-08-23T13:31:04.754Z,76.60
2022-08-23T13:33:34.534Z,75.70
2022-08-23T13:36:13.059Z,75.90
2022-08-23T13:38:41.882Z,72.50
2022-08-23T13:41:13.841Z,71.80
2022-08-23T13:43:43.691Z,73.00
2022-08-23T13:46:16.610Z,72.40
2022-08-23T13:48:48.726Z,71.30
2022-08-23T13:51:29.514Z,70.60
2022-08-23T13:54:08.379Z,70.20
2022-08-23T13:56:46.281Z,69.40
2022-08-23T13:59:31.421Z,70.00
2022-08-23T14:02:05.928Z,69.90
2022-08-23T14:04:35.578Z,68.60
2022-08-23T14:07:04.538Z,68.90
2022-08-23T14:09:34.053Z,69.50
2022-08-23T14:12:04.527Z,69.50
2022-08-23T14:14:35.706Z,69.80
2022-08-23T14:17:03.286Z,70.50
2022-08-23T14:22:22.283Z,70.80
2022-08-23T14:24:49.860Z,70.60
2022-08-23T14:27:19.480Z,70.90
2022-08-23T14:29:48.733Z,71.90
2022-08-23T14:32:15.472Z,71.90
2022-08-23T14:34:45.468Z,71.40
2022-08-23T14:40:02.095Z,70.80
2022-08-23T14:42:29.005Z,72.60
2022-08-23T14:44:58.356Z,73.70
2022-08-23T14:47:27.317Z,74.30
2022-08-23T14:49:54.391Z,74.80
2022-08-23T14:52:22.432Z,75.20
2022-08-23T14:54:49.814Z,75.60
2022-08-23T14:57:17.046Z,76.10
2022-08-23T14:59:43.943Z,76.60
2022-08-23T15:02:21.214Z,76.20
2022-08-23T15:04:48.244Z,76.70
2022-08-23T15:07:18.108Z,77.20
2022-08-23T15:09:50.683Z,77.40
2022-08-23T15:15:10.805Z,78.00
2022-08-23T15:17:46.893Z,78.20
2022-08-23T15:20:14.041Z,78.50
2022-08-23T15:22:45.115Z,79.10
2022-08-23T15:25:23.613Z,79.20
2022-08-23T15:27:51.256Z,79.30
2022-08-23T15:30:18.382Z,78.00
2022-08-23T15:32:52.272Z,78.20
2022-08-23T15:35:24.721Z,78.50
2022-08-23T15:37:57.267Z,78.50
2022-08-23T15:40:26.625Z,78.00
2022-08-23T15:42:58.689Z,77.60
2022-08-23T15:45:25.949Z,77.50
2022-08-23T15:47:55.982Z,77.90
2022-08-23T15:50:33.112Z,77.90
2022-08-23T15:53:02.903Z,78.30
2022-08-23T15:55:32.788Z,78.20
2022-08-23T15:58:03.342Z,77.80
2022-08-23T16:00:32.635Z,77.90
2022-08-23T16:03:18.859Z,78.20
2022-08-23T16:05:48.767Z,78.30
2022-08-23T16:08:37.230Z,77.80
2022-08-23T16:11:12.159Z,77.70
2022-08-23T16:13:45.215Z,77.70
2022-08-23T16:16:33.211Z,78.00
2022-08-23T16:19:00.628Z,78.20
2022-08-23T16:21:29.136Z,78.40
2022-08-23T16:23:59.196Z,78.70
2022-08-23T16:26:35.204Z,79.10
2022-08-23T16:29:04.080Z,79.70
2022-08-23T16:31:38.324Z,79.80
2022-08-23T16:34:08.168Z,79.80
2022-08-23T16:36:35.114Z,79.70
2022-08-23T16:39:04.069Z,79.80
2022-08-23T16:41:30.857Z,79.80
2022-08-23T16:43:57.707Z,79.80
2022-08-23T16:46:25.572Z,79.80
2022-08-23T16:48:52.426Z,79.70
2022-08-23T16:51:19.428Z,79.80
2022-08-23T16:54:01.731Z,79.80
2022-08-23T16:56:34.026Z,80.00
2022-08-23T16:59:01.651Z,80.00
2022-08-23T17:01:30.009Z,80.70
2022-08-23T17:03:57.055Z,81.00
2022-08-23T17:06:26.405Z,81.00
2022-08-23T17:08:55.343Z,81.30
2022-08-23T17:11:22.135Z,81.10
2022-08-23T17:13:49.872Z,81.30
2022-08-23T17:16:18.851Z,81.40
2022-08-23T17:18:45.906Z,81.90
2022-08-23T17:21:12.807Z,82.10
2022-08-23T17:23:40.635Z,82.10
2022-08-23T17:26:08.736Z,83.10
2022-08-23T17:28:36.177Z,82.30
2022-08-23T17:47:16.778Z,83.50
2022-08-23T17:49:45.397Z,83.70
2022-08-23T17:52:12.891Z,84.20
2022-08-23T17:54:41.135Z,84.70
2022-08-23T17:57:09.833Z,85.00
2022-08-23T17:59:39.811Z,85.30
2022-08-23T18:02:09.404Z,85.60
2022-08-23T18:07:17.621Z,86.60
2022-08-23T18:09:48.524Z,86.80
2022-08-23T18:12:15.832Z,87.20
2022-08-23T18:14:46.729Z,87.50
2022-08-23T18:17:13.529Z,87.80
2022-08-23T18:19:43.497Z,88.30
2022-08-23T18:22:10.275Z,88.70
2022-08-23T18:24:42.180Z,88.80
2022-08-23T18:27:27.442Z,89.30
2022-08-23T18:29:54.331Z,89.80
2022-08-23T18:32:21.043Z,90.00
2022-08-23T18:34:50.925Z,90.00
2022-08-23T18:37:21.764Z,89.80
2022-08-23T18:39:49.306Z,89.60
2022-08-23T18:42:16.575Z,89.60
2022-08-23T18:44:43.521Z,89.60
2022-08-23T18:47:10.387Z,89.60
2022-08-23T18:49:38.731Z,89.70
2022-08-23T18:52:06.347Z,89.80
2022-08-23T18:54:34.188Z,90.00
2022-08-23T18:57:01.175Z,90.00
2022-08-23T18:59:29.308Z,90.10
2022-08-23T19:01:56.524Z,90.20
2022-08-23T19:04:24.450Z,90.10
2022-08-23T19:06:53.467Z,90.20
2022-08-23T19:09:21.597Z,90.20
2022-08-23T19:11:50.963Z,90.00
2022-08-23T19:14:19.348Z,90.10
2022-08-23T19:16:48.658Z,90.20
2022-08-23T19:19:17.168Z,90.60
2022-08-23T19:21:44.525Z,91.00
2022-08-23T19:24:14.075Z,91.40
2022-08-23T19:26:44.478Z,92.00
2022-08-23T19:29:11.513Z,91.80
2022-08-23T19:31:43.050Z,91.90
2022-08-23T19:34:11.417Z,92.10
2022-08-23T19:36:48.256Z,92.20
2022-08-23T19:39:18.719Z,92.30
2022-08-23T19:41:46.200Z,92.40
2022-08-23T19:44:17.779Z,92.50
2022-08-23T19:46:45.060Z,92.50
2022-08-23T19:49:13.183Z,92.90
2022-08-23T19:51:40.594Z,92.60
2022-08-23T19:54:12.488Z,92.60
2022-08-23T19:56:50.534Z,92.80
2022-08-23T19:59:23.182Z,93.00
2022-08-23T20:01:50.971Z,93.30
2022-08-23T20:04:19.272Z,93.20
2022-08-23T20:06:46.231Z,93.00
2022-08-23T20:09:13.094Z,93.00
2022-08-23T20:11:39.956Z,93.10
2022-08-23T20:14:08.090Z,93.20
2022-08-23T20:16:40.961Z,93.30
2022-08-23T20:19:09.219Z,93.30
2022-08-23T20:21:39.352Z,93.30
2022-08-23T20:24:13.426Z,93.30
2022-08-23T20:26:43.610Z,93.40
2022-08-23T20:29:21.866Z,93.60
2022-08-23T20:31:57.777Z,93.60
2022-08-23T20:34:28.349Z,93.80
2022-08-23T20:36:56.117Z,94.00
2022-08-23T20:39:24.640Z,93.90
2022-08-23T20:41:54.108Z,93.80
2022-08-23T20:44:25.348Z,93.70
2022-08-23T20:47:00.977Z,93.90
2022-08-23T20:49:32.428Z,93.90
2022-08-23T20:51:59.223Z,94.20
2022-08-23T20:54:28.692Z,94.50
2022-08-23T20:56:55.889Z,94.60
2022-08-23T20:59:22.765Z,94.80
2022-08-23T21:01:50.193Z,94.80
2022-08-23T21:04:18.271Z,94.90
2022-08-23T21:06:47.894Z,94.80
2022-08-23T21:09:19.270Z,94.80
2022-08-23T21:11:48.030Z,95.00
2022-08-23T21:14:17.297Z,95.00
2022-08-23T21:16:46.139Z,94.90
2022-08-23T21:19:15.686Z,95.00
2022-08-23T21:21:45.167Z,95.30
2022-08-23T21:24:13.031Z,95.10
2022-08-23T21:26:43.099Z,95.20
2022-08-23T21:29:10.704Z,95.20
2022-08-23T21:31:38.353Z,95.30
2022-08-23T21:34:05.865Z,95.30
2022-08-23T21:36:32.609Z,95.30
2022-08-23T21:38:59.392Z,95.30
2022-08-23T21:41:36.315Z,95.30
2022-08-23T21:44:08.406Z,95.40
2022-08-23T21:46:38.590Z,95.50
2022-08-23T21:49:06.395Z,95.50
2022-08-23T21:51:36.298Z,95.60
2022-08-23T21:54:03.517Z,95.70
2022-08-23T21:56:33.028Z,95.80
2022-08-23T21:59:01.211Z,95.90
2022-08-23T22:01:34.215Z,96.10
2022-08-23T22:04:02.674Z,96.20
2022-08-23T22:06:29.730Z,96.30
2022-08-23T22:08:56.533Z,96.40
2022-08-23T22:11:28.621Z,96.40
2022-08-23T22:13:58.284Z,96.50
2022-08-23T22:16:25.325Z,96.70
2022-08-23T22:18:54.620Z,96.70
2022-08-23T22:21:21.348Z,96.80
2022-08-23T22:23:52.529Z,96.90
2022-08-23T22:26:19.443Z,97.00
2022-08-23T22:28:49.228Z,97.00
2022-08-23T22:31:19.170Z,97.20
2022-08-23T22:33:49.249Z,97.30
2022-08-23T22:36:18.959Z,97.40
2022-08-23T22:38:49.244Z,97.50
2022-08-23T22:41:23.962Z,97.60
2022-08-23T22:43:54.305Z,97.60
2022-08-23T22:46:22.327Z,97.60
2022-08-23T22:48:53.632Z,97.70
2022-08-23T22:51:24.864Z,97.80
2022-08-23T22:53:55.980Z,97.70
2022-08-23T22:56:26.113Z,97.70
2022-08-23T22:58:56.283Z,97.80
2022-08-23T23:01:29.428Z,97.90
2022-08-23T23:03:57.400Z,98.00
2022-08-23T23:06:25.222Z,98.00
2022-08-23T23:08:56.212Z,98.00
2022-08-23T23:11:23.948Z,98.10
2022-08-23T23:13:51.379Z,98.20
2022-08-23T23:16:21.974Z,98.30
2022-08-23T23:19:08.377Z,98.30
2022-08-23T23:21:38.316Z,98.30
2022-08-23T23:24:06.075Z,98.30
2022-08-23T23:26:35.825Z,98.30
2022-08-23T23:29:02.634Z,98.40
2022-08-23T23:31:29.423Z,98.50
2022-08-23T23:33:56.464Z,98.60
2022-08-23T23:36:23.600Z,98.60
2022-08-23T23:38:50.405Z,98.60
2022-08-23T23:41:20.655Z,98.70
2022-08-23T23:43:47.817Z,98.70
2022-08-23T23:46:17.626Z,98.70
2022-08-23T23:48:49.663Z,98.70
2022-08-23T23:51:20.998Z,98.80
2022-08-23T23:53:48.193Z,98.80
2022-08-23T23:56:19.265Z,98.70
2022-08-23T23:58:51.126Z,98.70
